KRNC/RNC METAR and TAF weather

Enter ICAO airport designator
Station Type Date Time Source
KRNC METAR 2019/02/20 18:15 UTC NOAA

KRNC 201815Z AUTO 14006KT 1 1/4SM BR BKN004 OVC008 11/10 A2996 RMK A01


Station Type Date Time Source
KRNC Decoded METAR 2019/02/20 18:15 UTC NOAA

Station name not available
Feb 20, 2019 - 01:15 PM EST / 2019.02.20 1815 UTC
Wind: from the SE (140 degrees) at 7 MPH (6 KT):0
Visibility: 1 1/4 mile(s):0
Sky conditions: overcast
Weather: mist
Temperature: 51 F (11 C)
Dew Point: 50 F (10 C)
Relative Humidity: 93%
Pressure (altimeter): 29.96 in. Hg (1014 hPa)
ob: KRNC 201815Z AUTO 14006KT 1 1/4SM BR BKN004 OVC008 11/10 A2996 RMK A01
cycle: 18

Station Type Date Time Source
KRNC TAF 2009/08/31 19:45 UTC NOAA

METAR KRNC 311945Z AUTO 35008KT 10SM CLR 25/12 A3011
RMK AO1 T02500116 $


Example: see airport list